Ana Sayfa
METAR-TAF:

METAR-TAF

Havaalanları :

Afton, Wyoming, Amerika Birleşik Devletleri

Enlem: 42-42-32N, Boylam: 110-56-32W, yükseklik: 1896 m

Güncel hava durumu gözlemi

Rapor saat 19:15 UTC de 14 dakika önce yapıldı.
Rüzgar batı/güneybatıdan 5 kt
Sıcaklık 19°C
Nem 40%
Basınç 1016 hPa
Görüş mesafesi: 16.1 km
Açık gökyüzü

METAR: KAFO 191915Z AUTO 25005KT 10SM CLR 19/05 A3001 RMK AO2

Saat: 13:29 (19:29 UTC)


TAF: eksik

4.000'den fazla havaalanı için hava durumu gözlemleri ve tahminleri (METAR ve TAF raporları).

Kullanılabilir istasyonlar harita üzerinde sarı ve kırmızı noktalarla gösterilir.

İstasyonun adını görmek için fareyi noktanın üzerinde gezdirin.

Sonrasında hava gözlem ve tahminlerini görmek için tıklayın.

Haritayı değiştirmek için: yaklaştırmak için siyah artı işaretli yeşil düğmeye ve uzaklaştırmak için de eksi işaretli düğmeye hızla tıklayın; bitişik haritalar için yeşil okları kullanın.


METAR-TAF: